sensor_id;sensor_type;location;lat;lon;timestamp;pressure;altitude;pressure_sealevel;temperature;humidity
20043;BME280;10182;52.896;6.496;2022-10-23T00:04:49;101350.63;;;10.68;100.00
20043;BME280;10182;52.896;6.496;2022-10-23T00:09:51;101343.66;;;10.65;100.00
20043;BME280;10182;52.896;6.496;2022-10-23T00:14:53;101340.75;;;10.71;100.00
20043;BME280;10182;52.896;6.496;2022-10-23T00:19:56;101343.47;;;10.70;100.00
20043;BME280;10182;52.896;6.496;2022-10-23T00:24:57;101337.69;;;10.82;100.00
20043;BME280;10182;52.896;6.496;2022-10-23T00:29:59;101345.44;;;10.88;100.00
20043;BME280;10182;52.896;6.496;2022-10-23T00:35:03;101343.97;;;10.79;100.00
20043;BME280;10182;52.896;6.496;2022-10-23T00:40:06;101346.88;;;10.73;100.00
20043;BME280;10182;52.896;6.496;2022-10-23T00:45:18;101349.53;;;10.73;100.00
20043;BME280;10182;52.896;6.496;2022-10-23T00:50:23;101362.06;;;10.68;100.00
20043;BME280;10182;52.896;6.496;2022-10-23T00:55:26;101364.03;;;10.63;100.00
20043;BME280;10182;52.896;6.496;2022-10-23T01:00:30;101367.19;;;10.73;100.00
20043;BME280;10182;52.896;6.496;2022-10-23T01:05:40;101356.38;;;10.79;100.00
20043;BME280;10182;52.896;6.496;2022-10-23T01:10:48;101351.81;;;10.82;100.00
20043;BME280;10182;52.896;6.496;2022-10-23T01:15:58;101349.97;;;10.84;100.00
20043;BME280;10182;52.896;6.496;2022-10-23T01:21:08;101342.22;;;10.80;100.00
20043;BME280;10182;52.896;6.496;2022-10-23T01:26:24;101327.28;;;10.77;100.00
20043;BME280;10182;52.896;6.496;2022-10-23T01:31:33;101317.31;;;10.84;100.00
20043;BME280;10182;52.896;6.496;2022-10-23T01:36:37;101328.06;;;10.79;100.00
20043;BME280;10182;52.896;6.496;2022-10-23T01:41:44;101326.41;;;10.77;100.00
20043;BME280;10182;52.896;6.496;2022-10-23T01:46:49;101324.56;;;10.79;100.00
20043;BME280;10182;52.896;6.496;2022-10-23T01:51:56;101313.63;;;10.88;100.00
20043;BME280;10182;52.896;6.496;2022-10-23T01:57:00;101303.94;;;10.87;100.00
20043;BME280;10182;52.896;6.496;2022-10-23T02:02:05;101313.09;;;10.78;100.00
20043;BME280;10182;52.896;6.496;2022-10-23T02:07:07;101321.50;;;10.66;100.00
20043;BME280;10182;52.896;6.496;2022-10-23T02:12:17;101312.66;;;10.67;100.00
20043;BME280;10182;52.896;6.496;2022-10-23T02:17:36;101307.47;;;10.64;100.00
20043;BME280;10182;52.896;6.496;2022-10-23T02:22:50;101317.50;;;10.56;100.00
20043;BME280;10182;52.896;6.496;2022-10-23T02:27:55;101306.09;;;10.54;100.00
20043;BME280;10182;52.896;6.496;2022-10-23T02:33:02;101288.09;;;10.63;100.00
20043;BME280;10182;52.896;6.496;2022-10-23T02:38:28;101272.97;;;10.65;100.00
20043;BME280;10182;52.896;6.496;2022-10-23T02:43:35;101277.28;;;10.68;100.00
20043;BME280;10182;52.896;6.496;2022-10-23T02:48:47;101268.53;;;10.66;100.00
20043;BME280;10182;52.896;6.496;2022-10-23T02:53:59;101259.03;;;10.60;100.00
20043;BME280;10182;52.896;6.496;2022-10-23T02:59:05;101258.25;;;10.58;100.00
20043;BME280;10182;52.896;6.496;2022-10-23T03:04:13;101257.78;;;10.47;100.00
20043;BME280;10182;52.896;6.496;2022-10-23T03:09:17;101233.66;;;10.55;100.00
20043;BME280;10182;52.896;6.496;2022-10-23T03:14:18;101237.22;;;10.54;100.00
20043;BME280;10182;52.896;6.496;2022-10-23T03:19:21;101238.88;;;10.56;100.00
20043;BME280;10182;52.896;6.496;2022-10-23T03:24:23;101226.53;;;10.57;100.00
20043;BME280;10182;52.896;6.496;2022-10-23T03:29:25;101225.56;;;10.58;100.00
20043;BME280;10182;52.896;6.496;2022-10-23T03:34:28;101220.47;;;10.53;100.00
20043;BME280;10182;52.896;6.496;2022-10-23T03:39:29;101213.75;;;10.44;100.00
20043;BME280;10182;52.896;6.496;2022-10-23T03:44:31;101214.59;;;10.45;100.00
20043;BME280;10182;52.896;6.496;2022-10-23T03:49:34;101216.44;;;10.43;100.00
20043;BME280;10182;52.896;6.496;2022-10-23T03:54:36;101220.09;;;10.40;100.00
20043;BME280;10182;52.896;6.496;2022-10-23T03:59:38;101210.53;;;10.36;100.00
20043;BME280;10182;52.896;6.496;2022-10-23T04:04:41;101208.69;;;10.38;100.00
20043;BME280;10182;52.896;6.496;2022-10-23T04:09:42;101195.56;;;10.35;100.00
20043;BME280;10182;52.896;6.496;2022-10-23T04:14:44;101202.84;;;10.28;100.00
20043;BME280;10182;52.896;6.496;2022-10-23T04:19:47;101200.31;;;10.25;100.00
20043;BME280;10182;52.896;6.496;2022-10-23T04:24:49;101191.28;;;10.31;100.00
20043;BME280;10182;52.896;6.496;2022-10-23T04:29:50;101203.81;;;10.26;100.00
20043;BME280;10182;52.896;6.496;2022-10-23T04:34:53;101196.53;;;10.09;100.00
20043;BME280;10182;52.896;6.496;2022-10-23T04:39:55;101192.16;;;10.08;100.00
20043;BME280;10182;52.896;6.496;2022-10-23T04:44:57;101207.28;;;10.04;100.00
20043;BME280;10182;52.896;6.496;2022-10-23T04:50:00;101220.56;;;10.03;100.00
20043;BME280;10182;52.896;6.496;2022-10-23T04:55:02;101218.19;;;9.95;100.00
20043;BME280;10182;52.896;6.496;2022-10-23T05:00:06;101197.66;;;10.02;100.00
20043;BME280;10182;52.896;6.496;2022-10-23T05:05:10;101184.16;;;10.09;100.00
20043;BME280;10182;52.896;6.496;2022-10-23T05:10:11;101175.97;;;10.15;100.00
20043;BME280;10182;52.896;6.496;2022-10-23T05:15:13;101173.56;;;10.09;100.00
20043;BME280;10182;52.896;6.496;2022-10-23T05:20:20;101165.63;;;10.09;100.00
20043;BME280;10182;52.896;6.496;2022-10-23T05:25:22;101154.53;;;9.99;100.00
20043;BME280;10182;52.896;6.496;2022-10-23T05:30:24;101148.47;;;9.96;100.00
20043;BME280;10182;52.896;6.496;2022-10-23T05:35:28;101144.16;;;9.93;100.00
20043;BME280;10182;52.896;6.496;2022-10-23T05:40:30;101142.03;;;9.79;100.00
20043;BME280;10182;52.896;6.496;2022-10-23T05:45:31;101143.75;;;9.80;100.00
20043;BME280;10182;52.896;6.496;2022-10-23T05:50:36;101144.72;;;9.78;100.00
20043;BME280;10182;52.896;6.496;2022-10-23T05:55:38;101142.59;;;9.88;100.00
20043;BME280;10182;52.896;6.496;2022-10-23T06:00:39;101130.28;;;9.87;100.00
20043;BME280;10182;52.896;6.496;2022-10-23T06:05:48;101124.25;;;9.83;100.00
20043;BME280;10182;52.896;6.496;2022-10-23T06:10:50;101117.59;;;9.96;100.00
20043;BME280;10182;52.896;6.496;2022-10-23T06:15:51;101118.66;;;9.91;100.00
20043;BME280;10182;52.896;6.496;2022-10-23T06:20:54;101116.78;;;9.94;100.00
20043;BME280;10182;52.896;6.496;2022-10-23T06:25:56;101125.56;;;9.95;100.00
20043;BME280;10182;52.896;6.496;2022-10-23T06:30:58;101122.97;;;9.93;100.00
20043;BME280;10182;52.896;6.496;2022-10-23T06:36:01;101120.19;;;9.98;100.00
20043;BME280;10182;52.896;6.496;2022-10-23T06:41:06;101119.22;;;9.99;100.00
20043;BME280;10182;52.896;6.496;2022-10-23T06:46:08;101124.31;;;10.05;100.00
20043;BME280;10182;52.896;6.496;2022-10-23T06:51:14;101122.34;;;10.10;100.00
20043;BME280;10182;52.896;6.496;2022-10-23T06:56:17;101129.31;;;10.13;100.00
20043;BME280;10182;52.896;6.496;2022-10-23T07:01:18;101128.50;;;10.11;100.00
20043;BME280;10182;52.896;6.496;2022-10-23T07:06:21;101123.84;;;10.18;100.00
20043;BME280;10182;52.896;6.496;2022-10-23T07:11:23;101118.00;;;10.31;100.00
20043;BME280;10182;52.896;6.496;2022-10-23T07:16:25;101108.97;;;10.37;100.00
20043;BME280;10182;52.896;6.496;2022-10-23T07:21:30;101107.00;;;10.42;100.00
20043;BME280;10182;52.896;6.496;2022-10-23T07:26:33;101099.88;;;10.44;100.00
20043;BME280;10182;52.896;6.496;2022-10-23T07:31:35;101085.25;;;10.56;100.00
20043;BME280;10182;52.896;6.496;2022-10-23T07:36:38;101073.44;;;10.65;100.00
20043;BME280;10182;52.896;6.496;2022-10-23T07:41:40;101076.72;;;10.70;100.00
20043;BME280;10182;52.896;6.496;2022-10-23T07:46:41;101081.72;;;10.78;100.00
20043;BME280;10182;52.896;6.496;2022-10-23T07:51:44;101074.38;;;10.84;100.00
20043;BME280;10182;52.896;6.496;2022-10-23T07:56:46;101073.97;;;10.94;100.00
20043;BME280;10182;52.896;6.496;2022-10-23T08:01:48;101065.75;;;11.00;100.00
20043;BME280;10182;52.896;6.496;2022-10-23T08:06:52;101047.66;;;11.10;100.00
20043;BME280;10182;52.896;6.496;2022-10-23T08:11:55;101049.97;;;11.17;100.00
20043;BME280;10182;52.896;6.496;2022-10-23T08:16:57;101056.59;;;11.28;100.00
20043;BME280;10182;52.896;6.496;2022-10-23T08:22:00;101054.31;;;11.39;100.00
20043;BME280;10182;52.896;6.496;2022-10-23T08:27:01;101047.66;;;11.49;100.00
20043;BME280;10182;52.896;6.496;2022-10-23T08:32:03;101050.88;;;11.56;100.00
20043;BME280;10182;52.896;6.496;2022-10-23T08:37:07;101038.69;;;11.71;100.00
20043;BME280;10182;52.896;6.496;2022-10-23T08:42:18;101037.28;;;11.83;100.00
20043;BME280;10182;52.896;6.496;2022-10-23T08:47:25;101030.63;;;11.93;100.00
20043;BME280;10182;52.896;6.496;2022-10-23T08:52:34;101042.53;;;12.04;100.00
20043;BME280;10182;52.896;6.496;2022-10-23T08:57:42;101041.16;;;12.14;100.00
20043;BME280;10182;52.896;6.496;2022-10-23T09:02:47;101032.59;;;12.26;100.00
20043;BME280;10182;52.896;6.496;2022-10-23T09:08:02;101027.53;;;12.39;100.00
20043;BME280;10182;52.896;6.496;2022-10-23T09:13:20;101033.97;;;12.52;100.00
20043;BME280;10182;52.896;6.496;2022-10-23T09:18:25;101027.94;;;12.66;100.00
20043;BME280;10182;52.896;6.496;2022-10-23T09:23:28;101015.03;;;12.76;100.00
20043;BME280;10182;52.896;6.496;2022-10-23T09:28:31;101010.97;;;12.86;100.00
20043;BME280;10182;52.896;6.496;2022-10-23T09:33:33;101000.53;;;12.99;100.00
20043;BME280;10182;52.896;6.496;2022-10-23T09:38:46;100983.75;;;13.15;100.00
20043;BME280;10182;52.896;6.496;2022-10-23T09:44:01;100976.75;;;13.30;100.00
20043;BME280;10182;52.896;6.496;2022-10-23T09:49:03;100958.69;;;13.36;100.00
20043;BME280;10182;52.896;6.496;2022-10-23T09:54:14;100948.41;;;13.46;100.00
20043;BME280;10182;52.896;6.496;2022-10-23T09:59:23;100954.00;;;13.58;100.00
20043;BME280;10182;52.896;6.496;2022-10-23T10:04:34;100946.25;;;13.69;100.00
20043;BME280;10182;52.896;6.496;2022-10-23T10:09:37;100945.56;;;13.81;100.00
20043;BME280;10182;52.896;6.496;2022-10-23T10:14:46;100937.56;;;13.97;100.00
20043;BME280;10182;52.896;6.496;2022-10-23T10:20:09;100932.19;;;14.13;100.00
20043;BME280;10182;52.896;6.496;2022-10-23T10:25:20;100928.97;;;14.22;100.00
20043;BME280;10182;52.896;6.496;2022-10-23T10:30:28;100931.50;;;14.40;100.00
20043;BME280;10182;52.896;6.496;2022-10-23T10:35:39;100929.03;;;14.51;100.00
20043;BME280;10182;52.896;6.496;2022-10-23T10:40:52;100920.09;;;14.52;100.00
20043;BME280;10182;52.896;6.496;2022-10-23T10:46:08;100911.91;;;14.55;100.00
20043;BME280;10182;52.896;6.496;2022-10-23T10:51:17;100912.69;;;14.58;100.00
20043;BME280;10182;52.896;6.496;2022-10-23T10:56:26;100896.50;;;14.61;100.00
20043;BME280;10182;52.896;6.496;2022-10-23T11:01:34;100876.84;;;14.63;100.00
20043;BME280;10182;52.896;6.496;2022-10-23T11:06:38;100871.41;;;14.65;100.00
20043;BME280;10182;52.896;6.496;2022-10-23T11:11:43;100871.41;;;14.65;100.00
20043;BME280;10182;52.896;6.496;2022-10-23T11:16:47;100868.75;;;14.65;100.00
20043;BME280;10182;52.896;6.496;2022-10-23T11:21:55;100846.56;;;14.64;100.00
20043;BME280;10182;52.896;6.496;2022-10-23T11:27:16;100817.41;;;14.61;100.00
20043;BME280;10182;52.896;6.496;2022-10-23T11:32:30;100807.53;;;14.63;100.00
20043;BME280;10182;52.896;6.496;2022-10-23T11:37:32;100791.59;;;14.62;100.00
20043;BME280;10182;52.896;6.496;2022-10-23T11:42:46;100804.94;;;14.62;100.00
20043;BME280;10182;52.896;6.496;2022-10-23T11:47:55;100779.00;;;14.65;100.00
20043;BME280;10182;52.896;6.496;2022-10-23T11:53:05;100765.47;;;14.68;100.00
20043;BME280;10182;52.896;6.496;2022-10-23T11:58:18;100766.88;;;14.74;100.00
20043;BME280;10182;52.896;6.496;2022-10-23T12:03:25;100768.69;;;14.74;100.00
20043;BME280;10182;52.896;6.496;2022-10-23T12:08:30;100763.25;;;14.75;100.00
20043;BME280;10182;52.896;6.496;2022-10-23T12:13:45;100743.63;;;14.76;100.00
20043;BME280;10182;52.896;6.496;2022-10-23T12:18:49;100732.69;;;14.81;100.00
20043;BME280;10182;52.896;6.496;2022-10-23T12:24:01;100721.25;;;14.79;100.00
20043;BME280;10182;52.896;6.496;2022-10-23T12:29:10;100712.97;;;14.83;100.00
20043;BME280;10182;52.896;6.496;2022-10-23T12:34:29;100693.25;;;14.86;100.00
20043;BME280;10182;52.896;6.496;2022-10-23T12:39:35;100685.34;;;14.84;100.00
20043;BME280;10182;52.896;6.496;2022-10-23T12:44:39;100670.09;;;14.86;100.00
20043;BME280;10182;52.896;6.496;2022-10-23T12:49:47;100662.75;;;14.90;100.00
20043;BME280;10182;52.896;6.496;2022-10-23T12:54:50;100663.38;;;14.94;100.00
20043;BME280;10182;52.896;6.496;2022-10-23T12:59:55;100640.16;;;14.96;100.00
20043;BME280;10182;52.896;6.496;2022-10-23T13:05:00;100630.78;;;15.03;100.00
20043;BME280;10182;52.896;6.496;2022-10-23T13:10:04;100603.44;;;14.99;100.00
20043;BME280;10182;52.896;6.496;2022-10-23T13:15:16;100603.88;;;15.06;100.00
20043;BME280;10182;52.896;6.496;2022-10-23T13:20:21;100578.09;;;15.06;100.00
20043;BME280;10182;52.896;6.496;2022-10-23T13:25:25;100570.81;;;15.09;100.00
20043;BME280;10182;52.896;6.496;2022-10-23T13:30:31;100557.38;;;15.10;100.00
20043;BME280;10182;52.896;6.496;2022-10-23T13:35:34;100551.63;;;15.16;100.00
20043;BME280;10182;52.896;6.496;2022-10-23T13:40:36;100567.19;;;15.22;100.00
20043;BME280;10182;52.896;6.496;2022-10-23T13:45:39;100557.41;;;15.23;100.00
20043;BME280;10182;52.896;6.496;2022-10-23T13:50:41;100548.34;;;15.26;100.00
20043;BME280;10182;52.896;6.496;2022-10-23T13:55:44;100548.22;;;15.27;100.00
20043;BME280;10182;52.896;6.496;2022-10-23T14:00:49;100532.00;;;15.30;100.00
20043;BME280;10182;52.896;6.496;2022-10-23T14:05:51;100532.94;;;15.29;100.00
20043;BME280;10182;52.896;6.496;2022-10-23T14:10:53;100534.78;;;15.29;100.00
20043;BME280;10182;52.896;6.496;2022-10-23T14:15:56;100522.50;;;15.26;100.00
20043;BME280;10182;52.896;6.496;2022-10-23T14:20:59;100511.81;;;15.26;100.00
20043;BME280;10182;52.896;6.496;2022-10-23T14:26:01;100493.47;;;15.21;100.00
20043;BME280;10182;52.896;6.496;2022-10-23T14:31:05;100479.16;;;15.22;100.00
20043;BME280;10182;52.896;6.496;2022-10-23T14:36:07;100476.41;;;15.24;100.00
20043;BME280;10182;52.896;6.496;2022-10-23T14:41:10;100471.47;;;15.31;100.00
20043;BME280;10182;52.896;6.496;2022-10-23T14:46:15;100466.78;;;15.34;100.00
20043;BME280;10182;52.896;6.496;2022-10-23T14:51:18;100455.69;;;15.40;100.00
20043;BME280;10182;52.896;6.496;2022-10-23T14:56:21;100433.16;;;15.45;100.00
20043;BME280;10182;52.896;6.496;2022-10-23T15:01:24;100425.88;;;15.47;100.00
20043;BME280;10182;52.896;6.496;2022-10-23T15:06:26;100420.53;;;15.47;100.00
20043;BME280;10182;52.896;6.496;2022-10-23T15:11:28;100420.41;;;15.48;100.00
20043;BME280;10182;52.896;6.496;2022-10-23T15:16:31;100424.91;;;15.48;100.00
20043;BME280;10182;52.896;6.496;2022-10-23T15:21:33;100417.13;;;15.45;100.00
20043;BME280;10182;52.896;6.496;2022-10-23T15:26:34;100420.00;;;15.42;100.00
20043;BME280;10182;52.896;6.496;2022-10-23T15:31:53;100421.19;;;15.37;100.00
20043;BME280;10182;52.896;6.496;2022-10-23T15:36:56;100399.72;;;15.39;100.00
20043;BME280;10182;52.896;6.496;2022-10-23T15:41:58;100405.81;;;15.41;100.00
20043;BME280;10182;52.896;6.496;2022-10-23T15:47:01;100394.00;;;15.32;100.00
20043;BME280;10182;52.896;6.496;2022-10-23T15:52:03;100388.88;;;15.29;100.00
20043;BME280;10182;52.896;6.496;2022-10-23T15:57:05;100379.59;;;15.22;100.00
20043;BME280;10182;52.896;6.496;2022-10-23T16:02:08;100369.34;;;15.16;100.00
20043;BME280;10182;52.896;6.496;2022-10-23T16:07:10;100364.47;;;15.10;100.00
20043;BME280;10182;52.896;6.496;2022-10-23T16:12:12;100358.63;;;15.04;100.00
20043;BME280;10182;52.896;6.496;2022-10-23T16:17:15;100354.34;;;15.02;100.00
20043;BME280;10182;52.896;6.496;2022-10-23T16:22:17;100340.59;;;14.95;100.00
20043;BME280;10182;52.896;6.496;2022-10-23T16:27:19;100349.28;;;14.86;100.00
20043;BME280;10182;52.896;6.496;2022-10-23T16:32:22;100347.56;;;14.85;100.00
20043;BME280;10182;52.896;6.496;2022-10-23T16:37:24;100331.78;;;14.82;100.00
20043;BME280;10182;52.896;6.496;2022-10-23T16:42:25;100323.78;;;14.82;100.00
20043;BME280;10182;52.896;6.496;2022-10-23T16:47:30;100316.97;;;14.78;100.00
20043;BME280;10182;52.896;6.496;2022-10-23T16:52:33;100308.75;;;14.68;100.00
20043;BME280;10182;52.896;6.496;2022-10-23T16:57:35;100311.94;;;14.73;100.00
20043;BME280;10182;52.896;6.496;2022-10-23T17:02:38;100289.91;;;14.71;100.00
20043;BME280;10182;52.896;6.496;2022-10-23T17:07:40;100281.78;;;14.72;100.00
20043;BME280;10182;52.896;6.496;2022-10-23T17:12:41;100290.75;;;14.71;100.00
20043;BME280;10182;52.896;6.496;2022-10-23T17:17:44;100298.09;;;14.81;100.00
20043;BME280;10182;52.896;6.496;2022-10-23T17:22:46;100274.81;;;14.96;100.00
20043;BME280;10182;52.896;6.496;2022-10-23T17:27:48;100270.19;;;14.98;100.00
20043;BME280;10182;52.896;6.496;2022-10-23T17:32:51;100264.94;;;15.09;100.00
20043;BME280;10182;52.896;6.496;2022-10-23T17:37:52;100287.38;;;15.06;100.00
20043;BME280;10182;52.896;6.496;2022-10-23T17:42:55;100287.13;;;15.10;100.00
20043;BME280;10182;52.896;6.496;2022-10-23T17:47:58;100287.13;;;15.10;100.00
20043;BME280;10182;52.896;6.496;2022-10-23T17:53:00;100283.72;;;15.07;100.00
20043;BME280;10182;52.896;6.496;2022-10-23T17:58:01;100297.38;;;15.03;100.00
20043;BME280;10182;52.896;6.496;2022-10-23T18:03:04;100291.09;;;15.04;100.00
20043;BME280;10182;52.896;6.496;2022-10-23T18:08:06;100279.13;;;15.10;100.00
20043;BME280;10182;52.896;6.496;2022-10-23T18:13:07;100284.34;;;15.11;100.00
20043;BME280;10182;52.896;6.496;2022-10-23T18:18:11;100291.50;;;15.11;100.00
20043;BME280;10182;52.896;6.496;2022-10-23T18:23:13;100284.22;;;15.13;100.00
20043;BME280;10182;52.896;6.496;2022-10-23T18:28:14;100282.94;;;15.18;100.00
20043;BME280;10182;52.896;6.496;2022-10-23T18:33:17;100268.31;;;15.24;100.00
20043;BME280;10182;52.896;6.496;2022-10-23T18:38:19;100270.00;;;15.25;100.00
20043;BME280;10182;52.896;6.496;2022-10-23T18:43:21;100260.41;;;15.22;100.00
20043;BME280;10182;52.896;6.496;2022-10-23T18:48:25;100258.75;;;15.33;100.00
20043;BME280;10182;52.896;6.496;2022-10-23T18:53:27;100254.06;;;15.36;100.00
20043;BME280;10182;52.896;6.496;2022-10-23T18:58:29;100244.09;;;15.38;100.00
20043;BME280;10182;52.896;6.496;2022-10-23T19:03:32;100235.88;;;15.42;100.00
20043;BME280;10182;52.896;6.496;2022-10-23T19:08:34;100240.63;;;15.49;100.00
20043;BME280;10182;52.896;6.496;2022-10-23T19:13:37;100242.84;;;15.55;100.00
20043;BME280;10182;52.896;6.496;2022-10-23T19:18:42;100248.91;;;15.57;100.00
20043;BME280;10182;52.896;6.496;2022-10-23T19:23:46;100241.41;;;15.63;100.00
20043;BME280;10182;52.896;6.496;2022-10-23T19:28:48;100240.81;;;15.70;100.00
20043;BME280;10182;52.896;6.496;2022-10-23T19:33:51;100232.47;;;15.75;100.00
20043;BME280;10182;52.896;6.496;2022-10-23T19:38:53;100225.41;;;15.74;100.00
20043;BME280;10182;52.896;6.496;2022-10-23T19:43:55;100223.84;;;15.71;100.00
20043;BME280;10182;52.896;6.496;2022-10-23T19:48:58;100221.78;;;15.75;100.00
20043;BME280;10182;52.896;6.496;2022-10-23T19:53:59;100219.00;;;15.77;100.00
20043;BME280;10182;52.896;6.496;2022-10-23T19:59:01;100232.34;;;15.77;100.00
20043;BME280;10182;52.896;6.496;2022-10-23T20:04:04;100234.22;;;15.87;100.00
20043;BME280;10182;52.896;6.496;2022-10-23T20:09:08;100226.94;;;15.89;100.00
20043;BME280;10182;52.896;6.496;2022-10-23T20:14:11;100229.88;;;15.98;100.00
20043;BME280;10182;52.896;6.496;2022-10-23T20:19:15;100212.75;;;16.00;100.00
20043;BME280;10182;52.896;6.496;2022-10-23T20:24:18;100213.38;;;15.93;100.00
20043;BME280;10182;52.896;6.496;2022-10-23T20:29:21;100205.94;;;15.96;100.00
20043;BME280;10182;52.896;6.496;2022-10-23T20:34:25;100208.63;;;15.96;100.00
20043;BME280;10182;52.896;6.496;2022-10-23T20:39:27;100219.31;;;15.96;100.00
20043;BME280;10182;52.896;6.496;2022-10-23T20:44:29;100220.75;;;15.89;100.00
20043;BME280;10182;52.896;6.496;2022-10-23T20:49:32;100225.59;;;15.84;100.00
20043;BME280;10182;52.896;6.496;2022-10-23T20:54:34;100215.81;;;15.71;100.00
20043;BME280;10182;52.896;6.496;2022-10-23T20:59:37;100217.28;;;15.64;100.00
20043;BME280;10182;52.896;6.496;2022-10-23T21:04:40;100246.63;;;15.64;100.00
20043;BME280;10182;52.896;6.496;2022-10-23T21:09:42;100238.75;;;15.63;100.00
20043;BME280;10182;52.896;6.496;2022-10-23T21:14:43;100225.53;;;15.61;100.00
20043;BME280;10182;52.896;6.496;2022-10-23T21:19:47;100233.13;;;15.54;100.00
20043;BME280;10182;52.896;6.496;2022-10-23T21:24:48;100233.06;;;15.43;100.00
20043;BME280;10182;52.896;6.496;2022-10-23T21:29:50;100234.41;;;15.37;100.00
20043;BME280;10182;52.896;6.496;2022-10-23T21:34:53;100231.91;;;15.23;100.00
20043;BME280;10182;52.896;6.496;2022-10-23T21:39:55;100224.25;;;15.18;100.00
20043;BME280;10182;52.896;6.496;2022-10-23T21:44:56;100229.81;;;15.15;100.00
20043;BME280;10182;52.896;6.496;2022-10-23T21:49:59;100231.00;;;15.11;100.00
20043;BME280;10182;52.896;6.496;2022-10-23T21:55:01;100246.16;;;15.11;100.00
20043;BME280;10182;52.896;6.496;2022-10-23T22:00:05;100251.22;;;15.02;100.00
20043;BME280;10182;52.896;6.496;2022-10-23T22:05:08;100249.63;;;15.00;100.00
20043;BME280;10182;52.896;6.496;2022-10-23T22:10:10;100244.59;;;14.95;100.00
20043;BME280;10182;52.896;6.496;2022-10-23T22:15:12;100245.91;;;14.89;100.00
20043;BME280;10182;52.896;6.496;2022-10-23T22:20:15;100253.91;;;14.89;100.00
20043;BME280;10182;52.896;6.496;2022-10-23T22:25:17;100261.59;;;14.81;100.00
20043;BME280;10182;52.896;6.496;2022-10-23T22:30:18;100260.00;;;14.79;100.00
20043;BME280;10182;52.896;6.496;2022-10-23T22:35:21;100268.13;;;14.77;100.00
20043;BME280;10182;52.896;6.496;2022-10-23T22:40:23;100254.84;;;14.64;100.00
20043;BME280;10182;52.896;6.496;2022-10-23T22:45:24;100250.00;;;14.56;100.00
20043;BME280;10182;52.896;6.496;2022-10-23T22:50:28;100249.28;;;14.54;100.00
20043;BME280;10182;52.896;6.496;2022-10-23T22:55:29;100246.31;;;14.46;100.00
20043;BME280;10182;52.896;6.496;2022-10-23T23:00:31;100252.69;;;14.44;100.00
20043;BME280;10182;52.896;6.496;2022-10-23T23:05:40;100251.41;;;14.49;100.00
20043;BME280;10182;52.896;6.496;2022-10-23T23:10:42;100259.28;;;14.51;100.00
20043;BME280;10182;52.896;6.496;2022-10-23T23:15:44;100273.16;;;14.43;100.00
20043;BME280;10182;52.896;6.496;2022-10-23T23:20:47;100282.84;;;14.44;100.00
20043;BME280;10182;52.896;6.496;2022-10-23T23:25:49;100290.63;;;14.47;100.00
20043;BME280;10182;52.896;6.496;2022-10-23T23:31:01;100313.66;;;14.61;100.00
20043;BME280;10182;52.896;6.496;2022-10-23T23:36:07;100282.84;;;14.70;100.00
20043;BME280;10182;52.896;6.496;2022-10-23T23:41:11;100265.88;;;14.84;100.00
20043;BME280;10182;52.896;6.496;2022-10-23T23:46:13;100261.28;;;14.86;100.00
20043;BME280;10182;52.896;6.496;2022-10-23T23:51:18;100265.34;;;14.79;100.00
20043;BME280;10182;52.896;6.496;2022-10-23T23:56:20;100268.13;;;14.77;100.00
